createdAt,value
2022-08-10T00:03:02.690Z,99.90
2022-08-10T00:05:43.403Z,99.90
2022-08-10T00:08:23.793Z,99.90
2022-08-10T00:10:55.773Z,99.90
2022-08-10T00:13:24.506Z,99.90
2022-08-10T00:15:55.036Z,99.90
2022-08-10T00:18:35.106Z,99.90
2022-08-10T00:21:07.828Z,99.90
2022-08-10T00:23:36.303Z,99.90
2022-08-10T00:26:04.592Z,99.90
2022-08-10T00:28:31.438Z,99.90
2022-08-10T00:30:58.437Z,99.90
2022-08-10T00:33:25.535Z,99.90
2022-08-10T00:35:52.402Z,99.90
2022-08-10T00:38:19.292Z,99.90
2022-08-10T00:40:46.253Z,99.90
2022-08-10T00:43:13.065Z,99.90
2022-08-10T00:45:40.119Z,99.90
2022-08-10T00:48:07.171Z,99.90
2022-08-10T00:50:34.642Z,99.90
2022-08-10T00:53:01.994Z,99.90
2022-08-10T00:55:28.867Z,99.90
2022-08-10T00:57:56.607Z,99.90
2022-08-10T01:00:24.318Z,99.90
2022-08-10T01:02:51.182Z,99.90
2022-08-10T01:05:20.450Z,99.90
2022-08-10T01:08:13.431Z,99.90
2022-08-10T01:10:42.958Z,99.90
2022-08-10T01:13:26.607Z,99.90
2022-08-10T01:16:21.707Z,99.90
2022-08-10T01:19:10.982Z,99.90
2022-08-10T01:22:18.682Z,99.90
2022-08-10T01:24:45.539Z,99.90
2022-08-10T01:27:34.111Z,99.90
2022-08-10T01:30:10.681Z,99.90
2022-08-10T01:32:42.058Z,99.90
2022-08-10T01:35:31.636Z,99.90
2022-08-10T01:38:04.231Z,99.90
2022-08-10T01:40:34.644Z,99.90
2022-08-10T01:43:07.927Z,99.90
2022-08-10T01:45:45.480Z,99.90
2022-08-10T01:48:31.951Z,99.90
2022-08-10T01:51:14.805Z,99.90
2022-08-10T01:53:47.186Z,99.90
2022-08-10T01:56:17.072Z,99.90
2022-08-10T01:58:46.393Z,99.90
2022-08-10T02:01:17.472Z,99.90
2022-08-10T02:04:03.979Z,99.90
2022-08-10T02:06:43.867Z,99.90
2022-08-10T02:09:15.360Z,99.90
2022-08-10T02:12:06.827Z,99.90
2022-08-10T02:14:34.737Z,99.90
2022-08-10T02:17:05.403Z,99.90
2022-08-10T02:19:35.397Z,99.90
2022-08-10T02:22:38.326Z,99.90
2022-08-10T02:24:50.823Z,99.90
2022-08-10T02:27:21.089Z,99.90
2022-08-10T02:29:49.389Z,99.90
2022-08-10T02:32:34.030Z,99.90
2022-08-10T02:35:07.055Z,99.90
2022-08-10T02:37:37.418Z,99.90
2022-08-10T02:40:04.926Z,99.90
2022-08-10T02:45:20.851Z,99.90
2022-08-10T02:45:33.849Z,99.90
2022-08-10T02:48:07.125Z,99.90
2022-08-10T02:50:36.053Z,99.90
2022-08-10T02:53:55.473Z,99.90
2022-08-10T02:56:51.552Z,99.90
2022-08-10T02:59:40.092Z,99.90
2022-08-10T03:02:11.939Z,99.90
2022-08-10T03:04:56.161Z,99.90
2022-08-10T03:07:42.840Z,99.90
2022-08-10T03:10:19.813Z,99.90
2022-08-10T03:12:51.764Z,99.90
2022-08-10T03:15:20.494Z,99.90
2022-08-10T03:17:57.794Z,99.90
2022-08-10T03:20:37.019Z,99.90
2022-08-10T03:23:10.293Z,99.90
2022-08-10T03:25:38.139Z,99.90
2022-08-10T03:28:05.735Z,99.90
2022-08-10T03:30:34.514Z,99.90
2022-08-10T03:33:04.223Z,99.90
2022-08-10T03:35:31.637Z,99.90
2022-08-10T03:38:00.562Z,99.90
2022-08-10T03:40:45.158Z,99.90
2022-08-10T03:43:19.219Z,99.90
2022-08-10T03:45:55.251Z,99.90
2022-08-10T03:48:32.348Z,99.90
2022-08-10T03:51:15.887Z,99.90
2022-08-10T03:54:05.735Z,99.90
2022-08-10T03:56:32.849Z,99.90
2022-08-10T03:59:01.367Z,99.90
2022-08-10T04:02:45.460Z,99.90
2022-08-10T04:04:23.288Z,99.90
2022-08-10T04:06:56.188Z,99.90
2022-08-10T04:09:43.330Z,99.90
2022-08-10T04:12:12.975Z,99.90
2022-08-10T04:14:51.234Z,99.90
2022-08-10T04:18:01.359Z,99.90
2022-08-10T04:20:20.474Z,99.90
2022-08-10T04:22:51.252Z,99.90
2022-08-10T04:25:19.359Z,99.90
2022-08-10T04:27:46.861Z,99.90
2022-08-10T04:30:14.125Z,99.90
2022-08-10T04:32:42.274Z,99.90
2022-08-10T04:35:12.088Z,99.90
2022-08-10T04:37:43.347Z,99.90
2022-08-10T04:40:28.638Z,99.90
2022-08-10T04:43:01.253Z,99.90
2022-08-10T04:45:50.524Z,99.90
2022-08-10T04:48:41.308Z,99.90
2022-08-10T04:51:03.641Z,99.90
2022-08-10T04:53:31.857Z,99.90
2022-08-10T04:55:58.578Z,99.90
2022-08-10T04:58:25.348Z,99.90
2022-08-10T05:00:52.097Z,99.90
2022-08-10T05:03:18.845Z,99.90
2022-08-10T05:05:46.131Z,99.90
2022-08-10T05:08:17.767Z,99.90
2022-08-10T05:10:44.527Z,99.90
2022-08-10T05:13:11.279Z,99.90
2022-08-10T05:15:38.171Z,99.90
2022-08-10T05:18:09.500Z,99.90
2022-08-10T05:20:38.498Z,99.90
2022-08-10T05:23:05.562Z,99.90
2022-08-10T05:25:33.004Z,99.90
2022-08-10T05:28:06.493Z,99.90
2022-08-10T05:30:34.331Z,99.90
2022-08-10T05:33:04.995Z,99.90
2022-08-10T05:35:55.304Z,99.90
2022-08-10T05:38:25.545Z,99.90
2022-08-10T05:40:52.593Z,99.90
2022-08-10T05:43:21.700Z,99.90
2022-08-10T05:46:17.477Z,99.90
2022-08-10T05:48:54.646Z,99.90
2022-08-10T05:51:26.251Z,99.90
2022-08-10T05:54:02.764Z,99.90
2022-08-10T05:56:55.678Z,99.90
2022-08-10T06:00:31.067Z,99.90
2022-08-10T06:02:32.923Z,99.90
2022-08-10T06:05:03.730Z,99.90
2022-08-10T06:07:31.047Z,99.90
2022-08-10T06:10:00.780Z,99.90
2022-08-10T06:17:38.300Z,99.90
2022-08-10T06:20:06.275Z,99.90
2022-08-10T06:22:33.497Z,99.90
2022-08-10T06:27:51.747Z,99.90
2022-08-10T06:30:20.922Z,99.90
2022-08-10T06:35:19.935Z,99.90
2022-08-10T06:37:51.322Z,99.90
2022-08-10T06:40:19.940Z,99.90
2022-08-10T06:45:22.443Z,99.90
2022-08-10T06:47:55.816Z,99.90
2022-08-10T06:50:59.082Z,99.90
2022-08-10T06:53:54.151Z,99.90
2022-08-10T06:56:37.707Z,99.90
2022-08-10T06:59:21.115Z,99.90
2022-08-10T07:01:57.457Z,99.90
2022-08-10T07:04:34.056Z,99.90
2022-08-10T07:07:06.682Z,99.90
2022-08-10T07:09:37.495Z,99.90
2022-08-10T07:12:09.063Z,99.90
2022-08-10T07:14:42.512Z,99.90
2022-08-10T07:17:16.123Z,99.70
2022-08-10T07:19:49.647Z,99.60
2022-08-10T07:23:50.720Z,99.00
2022-08-10T07:25:07.370Z,98.90
2022-08-10T07:27:59.268Z,98.70
2022-08-10T07:30:22.277Z,98.90
2022-08-10T07:32:52.448Z,98.10
2022-08-10T07:35:22.087Z,97.80
2022-08-10T07:37:51.879Z,97.20
2022-08-10T07:40:21.008Z,96.80
2022-08-10T07:42:52.216Z,96.60
2022-08-10T07:45:19.177Z,96.70
2022-08-10T07:47:55.528Z,96.40
2022-08-10T07:50:25.134Z,96.10
2022-08-10T07:52:55.512Z,95.80
2022-08-10T07:56:05.687Z,95.60
2022-08-10T07:58:11.374Z,95.30
2022-08-10T08:00:39.916Z,95.00
2022-08-10T08:03:09.292Z,94.80
2022-08-10T08:05:59.204Z,94.60
2022-08-10T08:08:23.878Z,94.10
2022-08-10T08:10:51.460Z,94.00
2022-08-10T08:13:21.828Z,93.90
2022-08-10T08:16:20.481Z,93.80
2022-08-10T08:18:39.712Z,93.90
2022-08-10T08:21:16.063Z,93.90
2022-08-10T08:24:05.992Z,93.90
2022-08-10T08:26:49.296Z,94.00
2022-08-10T08:29:20.079Z,93.70
2022-08-10T08:32:00.846Z,93.70
2022-08-10T08:34:34.326Z,93.60
2022-08-10T08:37:02.590Z,93.70
2022-08-10T08:39:31.928Z,93.30
2022-08-10T08:42:36.362Z,92.90
2022-08-10T08:45:25.255Z,92.00
2022-08-10T08:48:19.371Z,91.50
2022-08-10T08:50:56.732Z,92.00
2022-08-10T08:54:02.748Z,91.90
2022-08-10T08:56:52.418Z,92.10
2022-08-10T08:59:40.951Z,90.90
2022-08-10T09:02:33.878Z,90.80
2022-08-10T09:06:00.243Z,90.70
2022-08-10T09:08:46.244Z,91.20
2022-08-10T09:11:45.706Z,91.20
2022-08-10T09:14:30.602Z,91.40
2022-08-10T09:17:12.213Z,91.80
2022-08-10T09:19:58.190Z,90.90
2022-08-10T09:22:43.166Z,90.80
2022-08-10T09:25:18.742Z,90.40
2022-08-10T09:27:49.607Z,90.60
2022-08-10T09:30:28.390Z,90.40
2022-08-10T09:36:22.445Z,90.70
2022-08-10T09:36:33.209Z,90.80
2022-08-10T09:40:56.459Z,90.90
2022-08-10T09:42:32.178Z,92.50
2022-08-10T09:45:40.103Z,92.60
2022-08-10T09:48:22.719Z,90.60
2022-08-10T09:54:04.474Z,90.70
2022-08-10T09:57:07.164Z,90.60
2022-08-10T10:00:00.509Z,90.50
2022-08-10T10:02:52.615Z,90.70
2022-08-10T10:05:25.532Z,90.80
2022-08-10T10:08:10.923Z,90.30
2022-08-10T10:11:07.649Z,90.50
2022-08-10T10:14:12.309Z,89.80
2022-08-10T10:17:00.943Z,90.20
2022-08-10T10:19:40.904Z,88.40
2022-08-10T10:22:14.394Z,88.20
2022-08-10T10:25:21.799Z,88.40
2022-08-10T10:28:13.374Z,84.70
2022-08-10T10:30:57.795Z,87.00
2022-08-10T10:34:32.099Z,82.90
2022-08-10T10:37:01.453Z,84.70
2022-08-10T10:39:29.010Z,85.20
2022-08-10T10:42:34.943Z,85.20
2022-08-10T10:45:15.798Z,85.20
2022-08-10T10:48:00.964Z,84.30
2022-08-10T10:50:38.239Z,84.20
2022-08-10T10:53:45.754Z,83.20
2022-08-10T10:56:39.841Z,83.20
2022-08-10T10:59:55.592Z,83.10
2022-08-10T11:02:38.969Z,81.70
2022-08-10T11:05:47.927Z,84.30
2022-08-10T11:11:05.828Z,83.70
2022-08-10T11:14:26.843Z,84.40
2022-08-10T11:16:37.466Z,83.30
2022-08-10T11:19:04.149Z,81.10
2022-08-10T11:21:43.173Z,80.80
2022-08-10T11:24:48.051Z,80.20
2022-08-10T11:27:29.130Z,78.60
2022-08-10T11:30:29.117Z,81.90
2022-08-10T11:33:15.191Z,80.70
2022-08-10T11:36:07.352Z,77.60
2022-08-10T11:39:13.050Z,78.60
2022-08-10T11:42:09.451Z,81.60
2022-08-10T11:44:37.120Z,82.30
2022-08-10T11:47:39.284Z,80.90
2022-08-10T11:50:16.143Z,80.20
2022-08-10T11:53:09.046Z,80.20
2022-08-10T11:55:36.607Z,77.00
2022-08-10T11:58:31.384Z,79.60
2022-08-10T12:01:06.428Z,78.80
2022-08-10T12:03:36.362Z,76.10
2022-08-10T12:06:05.829Z,75.70
2022-08-10T12:10:07.804Z,73.60
2022-08-10T12:11:26.723Z,76.80
2022-08-10T12:14:20.931Z,77.30
2022-08-10T12:16:52.601Z,77.10
2022-08-10T12:19:29.132Z,76.10
2022-08-10T12:22:06.489Z,71.50
2022-08-10T12:24:49.537Z,71.20
2022-08-10T12:27:31.097Z,72.60
2022-08-10T12:30:09.935Z,71.80
2022-08-10T12:32:39.691Z,73.20
2022-08-10T12:35:22.022Z,73.30
2022-08-10T12:38:21.629Z,73.10
2022-08-10T12:40:56.001Z,72.70
2022-08-10T12:44:06.843Z,72.50
2022-08-10T12:46:31.832Z,72.70
2022-08-10T12:49:36.445Z,75.40
2022-08-10T12:52:29.131Z,75.20
2022-08-10T12:54:59.905Z,73.20
2022-08-10T12:57:28.395Z,73.40
2022-08-10T13:00:01.450Z,74.80
2022-08-10T13:02:32.745Z,75.40
2022-08-10T13:05:03.187Z,74.80
2022-08-10T13:08:25.541Z,75.40
2022-08-10T13:10:23.145Z,79.60
2022-08-10T13:12:54.547Z,65.30
2022-08-10T13:15:50.009Z,64.40
2022-08-10T13:18:24.960Z,64.50
2022-08-10T13:20:54.890Z,64.10
2022-08-10T13:23:27.351Z,64.80
2022-08-10T13:25:58.119Z,65.00
2022-08-10T13:28:45.489Z,64.70
2022-08-10T13:31:21.642Z,64.30
2022-08-10T13:34:42.742Z,64.40
2022-08-10T13:37:09.239Z,63.20
2022-08-10T13:39:59.857Z,62.50
2022-08-10T13:42:32.434Z,61.20
2022-08-10T13:45:12.198Z,61.10
2022-08-10T13:47:48.692Z,60.40
2022-08-10T13:50:33.617Z,61.90
2022-08-10T13:53:14.406Z,60.00
2022-08-10T13:55:48.702Z,61.70
2022-08-10T13:58:38.037Z,60.50
2022-08-10T14:01:23.394Z,60.10
2022-08-10T14:03:52.929Z,62.20
2022-08-10T14:06:23.456Z,63.90
2022-08-10T14:09:01.617Z,64.10
2022-08-10T14:11:30.605Z,62.30
2022-08-10T14:14:18.543Z,61.30
2022-08-10T14:16:46.467Z,62.30
2022-08-10T14:19:18.935Z,63.20
2022-08-10T14:21:46.853Z,63.70
2022-08-10T14:24:21.840Z,63.40
2022-08-10T14:26:49.915Z,63.50
2022-08-10T14:29:20.141Z,63.60
2022-08-10T14:32:01.855Z,61.60
2022-08-10T14:36:15.373Z,61.20
2022-08-10T14:37:38.011Z,61.00
2022-08-10T14:40:17.240Z,61.40
2022-08-10T14:43:00.189Z,62.10
2022-08-10T14:45:31.401Z,61.70
2022-08-10T14:48:07.198Z,62.90
2022-08-10T14:50:35.483Z,62.40
2022-08-10T14:53:14.841Z,62.20
2022-08-10T14:55:59.652Z,62.70
2022-08-10T14:58:38.476Z,62.70
2022-08-10T15:01:07.862Z,62.20
2022-08-10T15:03:59.042Z,61.90
2022-08-10T15:06:30.210Z,63.30
2022-08-10T15:09:19.890Z,62.10
2022-08-10T15:12:13.992Z,61.30
2022-08-10T15:14:43.707Z,62.20
2022-08-10T15:17:13.750Z,62.30
2022-08-10T15:20:03.512Z,62.70
2022-08-10T15:22:38.615Z,62.70
2022-08-10T15:25:18.780Z,62.90
2022-08-10T15:27:54.634Z,62.10
2022-08-10T15:30:30.258Z,62.30
2022-08-10T15:33:57.709Z,62.40
2022-08-10T15:36:30.396Z,62.60
2022-08-10T15:39:02.518Z,62.70
2022-08-10T15:41:58.174Z,62.60
2022-08-10T15:44:37.472Z,62.10
2022-08-10T15:47:25.635Z,62.30
2022-08-10T15:50:19.752Z,62.50
2022-08-10T15:53:16.663Z,63.00
2022-08-10T15:55:56.743Z,62.90
2022-08-10T15:58:40.420Z,63.30
2022-08-10T16:02:13.969Z,63.10
2022-08-10T16:04:31.747Z,63.10
2022-08-10T16:07:09.052Z,62.70
2022-08-10T16:10:22.990Z,62.30
2022-08-10T16:12:34.421Z,62.70
2022-08-10T16:15:11.084Z,62.30
2022-08-10T16:17:54.889Z,62.10
2022-08-10T16:20:33.234Z,62.90
2022-08-10T16:23:26.190Z,63.20
2022-08-10T16:26:14.581Z,63.30
2022-08-10T16:28:51.377Z,62.10
2022-08-10T16:31:21.482Z,62.70
2022-08-10T16:33:55.120Z,62.80
2022-08-10T16:36:32.072Z,63.10
2022-08-10T16:39:00.700Z,62.60
2022-08-10T16:42:02.680Z,63.10
2022-08-10T16:44:18.782Z,62.90
2022-08-10T16:46:46.345Z,62.90
2022-08-10T16:49:17.978Z,63.00
2022-08-10T16:51:48.073Z,62.40
2022-08-10T16:54:22.398Z,62.00
2022-08-10T16:56:53.264Z,62.40
2022-08-10T16:59:24.175Z,62.50
2022-08-10T17:01:54.164Z,62.80
2022-08-10T17:04:23.529Z,63.60
2022-08-10T17:06:58.703Z,63.30
2022-08-10T17:09:37.460Z,62.90
2022-08-10T17:12:11.576Z,63.40
2022-08-10T17:14:41.135Z,63.70
2022-08-10T17:17:13.895Z,63.20
2022-08-10T17:19:47.351Z,63.40
2022-08-10T17:22:17.420Z,63.40
2022-08-10T17:24:52.914Z,63.00
2022-08-10T17:28:03.775Z,63.80
2022-08-10T17:30:16.111Z,64.50
2022-08-10T17:33:04.432Z,65.20
2022-08-10T17:35:34.704Z,64.90
2022-08-10T17:38:23.545Z,63.90
2022-08-10T17:41:12.538Z,64.20
2022-08-10T17:44:00.830Z,64.70
2022-08-10T17:46:32.765Z,64.70
2022-08-10T17:49:04.628Z,64.40
2022-08-10T17:51:32.956Z,64.20
2022-08-10T17:54:02.001Z,64.60
2022-08-10T17:56:33.545Z,65.00
2022-08-10T17:59:08.497Z,65.10
2022-08-10T18:02:01.706Z,66.10
2022-08-10T18:04:33.039Z,66.00
2022-08-10T18:07:03.434Z,65.50
2022-08-10T18:09:41.275Z,66.20
2022-08-10T18:12:19.105Z,66.20
2022-08-10T18:14:49.911Z,68.00
2022-08-10T18:17:25.400Z,67.60
2022-08-10T18:19:56.641Z,67.70
2022-08-10T18:22:24.884Z,67.80
2022-08-10T18:24:53.077Z,68.60
2022-08-10T18:27:20.720Z,68.80
2022-08-10T18:29:51.740Z,69.40
2022-08-10T18:32:21.657Z,69.40
2022-08-10T18:34:52.725Z,69.10
2022-08-10T18:37:23.285Z,69.60
2022-08-10T18:39:54.398Z,69.70
2022-08-10T18:42:39.252Z,70.20
2022-08-10T18:45:13.474Z,71.00
2022-08-10T18:47:59.684Z,71.10
2022-08-10T18:50:50.507Z,71.60
2022-08-10T18:53:35.751Z,71.50
2022-08-10T18:56:36.013Z,72.20
2022-08-10T18:59:30.507Z,73.00
2022-08-10T19:02:13.211Z,73.00
2022-08-10T19:05:01.237Z,73.20
2022-08-10T19:07:37.157Z,75.00
2022-08-10T19:10:17.147Z,74.90
2022-08-10T19:13:20.925Z,75.30
2022-08-10T19:16:10.252Z,75.20
2022-08-10T19:19:16.364Z,74.70
2022-08-10T19:22:01.107Z,75.90
2022-08-10T19:25:01.856Z,75.20
2022-08-10T19:27:50.411Z,75.90
2022-08-10T19:30:19.214Z,75.30
2022-08-10T19:33:07.295Z,75.80
2022-08-10T19:36:05.447Z,75.90
2022-08-10T19:38:49.737Z,76.20
2022-08-10T19:41:32.847Z,76.10
2022-08-10T19:44:11.760Z,76.30
2022-08-10T19:46:47.253Z,76.40
2022-08-10T19:49:39.947Z,77.50
2022-08-10T19:52:25.561Z,78.50
2022-08-10T19:55:07.507Z,78.20
2022-08-10T19:57:53.827Z,78.60
2022-08-10T20:00:26.930Z,78.00
2022-08-10T20:03:18.197Z,78.80
2022-08-10T20:06:18.054Z,79.50
2022-08-10T20:08:53.314Z,79.80
2022-08-10T20:11:47.670Z,79.30
2022-08-10T20:14:27.559Z,79.40
2022-08-10T20:17:02.416Z,80.00
2022-08-10T20:19:53.154Z,81.30
2022-08-10T20:22:29.801Z,81.10
2022-08-10T20:25:20.811Z,81.20
2022-08-10T20:27:59.132Z,80.90
2022-08-10T20:30:31.383Z,80.60
2022-08-10T20:33:10.362Z,80.80
2022-08-10T20:36:02.707Z,80.90
2022-08-10T20:38:35.325Z,81.70
2022-08-10T20:41:46.458Z,82.20
2022-08-10T20:44:19.599Z,82.50
2022-08-10T20:46:59.204Z,82.60
2022-08-10T20:49:44.961Z,82.80
2022-08-10T20:52:13.803Z,83.30
2022-08-10T20:54:52.190Z,83.80
2022-08-10T20:57:55.252Z,84.70
2022-08-10T21:00:30.521Z,85.00
2022-08-10T21:03:06.833Z,85.80
2022-08-10T21:06:02.034Z,86.50
2022-08-10T21:08:51.880Z,87.00
2022-08-10T21:11:24.838Z,87.00
2022-08-10T21:14:02.742Z,87.70
2022-08-10T21:16:48.289Z,88.20
2022-08-10T21:19:52.261Z,88.90
2022-08-10T21:22:29.388Z,89.30
2022-08-10T21:25:03.733Z,89.70
2022-08-10T21:28:00.896Z,90.00
2022-08-10T21:30:51.103Z,90.20
2022-08-10T21:33:42.105Z,90.60
2022-08-10T21:36:17.207Z,90.80
2022-08-10T21:38:52.275Z,91.10
2022-08-10T21:42:02.843Z,91.50
2022-08-10T21:45:12.863Z,91.90
2022-08-10T21:48:34.384Z,92.00
2022-08-10T21:52:01.162Z,92.10
2022-08-10T21:54:52.290Z,92.50
2022-08-10T21:57:46.986Z,93.10
2022-08-10T22:03:39.956Z,93.60
2022-08-10T22:06:28.086Z,93.90
2022-08-10T22:09:23.116Z,94.30
2022-08-10T22:12:31.980Z,94.50
2022-08-10T22:15:42.528Z,95.00
2022-08-10T22:18:33.455Z,95.30
2022-08-10T22:21:45.372Z,95.70
2022-08-10T22:24:52.656Z,96.10
2022-08-10T22:27:54.839Z,96.50
2022-08-10T22:30:57.856Z,97.20
2022-08-10T22:34:08.726Z,97.90
2022-08-10T22:37:02.908Z,98.40
2022-08-10T22:40:12.794Z,98.80
2022-08-10T22:43:10.582Z,98.90
2022-08-10T22:46:06.615Z,99.10
2022-08-10T22:48:59.440Z,99.60
2022-08-10T22:51:54.164Z,99.90
2022-08-10T22:54:52.796Z,99.90
2022-08-10T22:57:38.534Z,99.90
2022-08-10T23:00:15.135Z,99.90
2022-08-10T23:02:56.507Z,99.90
2022-08-10T23:05:34.270Z,99.90
2022-08-10T23:08:29.748Z,99.90
2022-08-10T23:11:06.450Z,99.90
2022-08-10T23:13:40.333Z,99.90
2022-08-10T23:16:38.994Z,99.90
2022-08-10T23:19:24.356Z,99.90
2022-08-10T23:22:06.115Z,99.90
2022-08-10T23:24:51.705Z,99.90
2022-08-10T23:27:38.457Z,99.90
2022-08-10T23:30:18.060Z,99.90
2022-08-10T23:32:49.376Z,99.90
2022-08-10T23:36:31.443Z,99.90
2022-08-10T23:38:07.362Z,99.90
2022-08-10T23:40:36.392Z,99.90
2022-08-10T23:43:04.756Z,99.90
2022-08-10T23:45:52.406Z,99.90
2022-08-10T23:48:26.146Z,99.90
2022-08-10T23:51:02.570Z,99.90
2022-08-10T23:53:36.094Z,99.90
2022-08-10T23:56:12.993Z,99.90
2022-08-10T23:58:47.144Z,99.90
